Time;durP1;ratioP1;P1;durP2;ratioP2;P2;SDS_P1;SDS_P2;PMS_P1;PMS_P2;Temp;Humidity;BMP_temperature;BMP_pressure;BME280_temperature;BME280_humidity;BME280_pressure;Samples;Min_cycle;Max_cycle;Signal;HPM_P1;HPM_P2
2023/02/28 00:00:13;;;;;;;9.23;5.57;;;;;;;;;;5049256;28;20029;-58
2023/02/28 00:02:40;;;;;;;12.00;5.50;;;;;;;;;;5067299;28;20381;-59
2023/02/28 00:05:08;;;;;;;6.25;4.53;;;;;;;;;;5065145;28;20104;-57
2023/02/28 00:07:33;;;;;;;6.55;4.40;;;;;;;;;;5066330;28;20032;-58
2023/02/28 00:09:59;;;;;;;7.57;4.55;;;;;;;;;;5049985;28;21236;-59
2023/02/28 00:12:25;;;;;;;7.45;4.88;;;;;;;;;;5068128;28;20027;-58
2023/02/28 00:14:51;;;;;;;7.22;4.80;;;;;;;;;;5067889;28;20066;-59
2023/02/28 00:17:20;;;;;;;8.68;4.57;;;;;;;;;;5050964;28;20036;-58
2023/02/28 00:19:49;;;;;;;6.15;4.05;;;;;;;;;;5048949;28;20037;-58
2023/02/28 00:22:17;;;;;;;6.10;4.32;;;;;;;;;;5033479;28;20024;-58
2023/02/28 00:24:43;;;;;;;8.00;4.53;;;;;;;;;;5067906;28;20024;-59
2023/02/28 00:27:08;;;;;;;9.70;5.00;;;;;;;;;;5067945;28;20099;-58
2023/02/28 00:29:33;;;;;;;5.80;4.32;;;;;;;;;;5067896;28;20032;-59
2023/02/28 00:31:59;;;;;;;10.35;4.72;;;;;;;;;;5067344;28;20134;-59
2023/02/28 00:34:24;;;;;;;8.00;5.00;;;;;;;;;;5050910;28;20029;-59
2023/02/28 00:36:49;;;;;;;10.75;5.00;;;;;;;;;;5050896;28;20020;-59
2023/02/28 00:39:16;;;;;;;7.35;4.28;;;;;;;;;;5067059;28;20032;-58
2023/02/28 00:41:41;;;;;;;8.63;4.68;;;;;;;;;;5068700;28;20028;-59
2023/02/28 00:44:07;;;;;;;7.10;4.20;;;;;;;;;;5068924;28;20020;-58
2023/02/28 00:46:32;;;;;;;8.27;5.20;;;;;;;;;;5050269;28;20028;-59
2023/02/28 00:48:57;;;;;;;10.38;4.45;;;;;;;;;;5050674;28;20036;-59
2023/02/28 00:51:23;;;;;;;8.15;4.75;;;;;;;;;;5066476;28;20431;-59
2023/02/28 00:53:48;;;;;;;7.10;4.55;;;;;;;;;;5067496;28;20037;-59
2023/02/28 00:56:14;;;;;;;8.13;4.63;;;;;;;;;;5067448;28;20032;-59
2023/02/28 00:58:39;;;;;;;7.38;4.63;;;;;;;;;;5066094;28;20051;-59
2023/02/28 01:01:05;;;;;;;6.15;4.47;;;;;;;;;;5067753;28;20060;-59
2023/02/28 01:03:31;;;;;;;10.50;4.82;;;;;;;;;;5067376;28;20206;-59
2023/02/28 01:05:57;;;;;;;8.85;4.72;;;;;;;;;;5032642;28;20033;-55
2023/02/28 01:08:22;;;;;;;9.50;4.80;;;;;;;;;;5067414;28;20037;-54
2023/02/28 01:10:48;;;;;;;8.45;4.75;;;;;;;;;;5067572;28;20032;-53
2023/02/28 01:13:14;;;;;;;7.82;4.95;;;;;;;;;;5068335;28;20032;-54
2023/02/28 01:15:48;;;;;;;6.75;4.80;;;;;;;;;;5066804;28;20032;-55
2023/02/28 01:18:14;;;;;;;7.18;4.50;;;;;;;;;;5062576;28;20028;-54
2023/02/28 01:20:39;;;;;;;7.70;4.80;;;;;;;;;;5067402;28;20077;-53
2023/02/28 01:23:05;;;;;;;8.60;5.40;;;;;;;;;;5068359;28;20409;-54
2023/02/28 01:25:30;;;;;;;13.00;5.25;;;;;;;;;;5051126;28;20394;-53
2023/02/28 01:27:56;;;;;;;11.43;5.28;;;;;;;;;;5065111;28;20031;-54
2023/02/28 01:30:21;;;;;;;9.80;5.32;;;;;;;;;;5065180;28;20044;-54
2023/02/28 01:32:46;;;;;;;7.47;4.50;;;;;;;;;;5067618;28;20033;-54
2023/02/28 01:35:12;;;;;;;10.57;5.45;;;;;;;;;;5068027;28;20027;-54
2023/02/28 01:37:37;;;;;;;9.80;4.95;;;;;;;;;;5066460;28;20044;-54
2023/02/28 01:40:03;;;;;;;7.78;4.75;;;;;;;;;;5067816;28;20032;-54
2023/02/28 01:42:29;;;;;;;7.32;5.10;;;;;;;;;;5067498;28;20452;-53
2023/02/28 01:44:59;;;;;;;10.00;5.10;;;;;;;;;;5066920;28;20120;-54
2023/02/28 01:47:32;;;;;;;9.45;4.28;;;;;;;;;;5067370;28;20031;-54
2023/02/28 01:50:00;;;;;;;12.23;5.55;;;;;;;;;;5066958;28;20024;-54
2023/02/28 01:52:26;;;;;;;8.65;4.63;;;;;;;;;;5071354;28;20060;-54
2023/02/28 01:54:55;;;;;;;7.28;4.50;;;;;;;;;;5071438;28;20098;-54
2023/02/28 01:57:25;;;;;;;8.32;4.95;;;;;;;;;;5070889;28;20460;-54
2023/02/28 02:00:04;;;;;;;;;;;;;;;;;;5069831;28;20028;-53
2023/02/28 02:02:30;;;;;;;8.25;4.70;;;;;;;;;;5072004;28;20363;-55
2023/02/28 02:05:05;;;;;;;10.20;5.25;;;;;;;;;;5071717;28;20090;-58
2023/02/28 02:07:34;;;;;;;8.98;4.72;;;;;;;;;;5068237;28;20020;-59
2023/02/28 02:10:06;;;;;;;10.10;5.00;;;;;;;;;;5070330;28;20052;-59
2023/02/28 02:12:42;;;;;;;7.45;5.00;;;;;;;;;;5071407;28;20297;-59
2023/02/28 02:15:35;;;;;;;6.20;4.18;;;;;;;;;;5050860;28;20036;-59
2023/02/28 02:18:16;;;;;;;10.48;5.47;;;;;;;;;;5039508;28;20139;-59
2023/02/28 02:21:00;;;;;;;8.80;4.95;;;;;;;;;;5071747;28;20024;-59
2023/02/28 02:24:02;;;;;;;9.43;4.70;;;;;;;;;;5070848;28;20497;-59
2023/02/28 02:26:50;;;;;;;8.35;4.80;;;;;;;;;;5068843;28;20032;-58
2023/02/28 02:30:00;;;;;;;12.52;5.43;;;;;;;;;;5069896;28;20055;-58
2023/02/28 02:33:07;;;;;;;7.45;4.57;;;;;;;;;;5049293;28;20029;-59
2023/02/28 02:35:39;;;;;;;8.98;4.97;;;;;;;;;;5047566;28;20044;-58
2023/02/28 02:38:27;;;;;;;8.73;4.93;;;;;;;;;;5070229;28;20040;-58
2023/02/28 02:40:59;;;;;;;8.30;4.72;;;;;;;;;;5071004;28;20036;-58
2023/02/28 02:43:52;;;;;;;8.85;5.47;;;;;;;;;;5069746;28;20043;-58
2023/02/28 02:46:32;;;;;;;9.50;5.30;;;;;;;;;;5067870;28;20042;-57
2023/02/28 02:49:01;;;;;;;9.60;5.22;;;;;;;;;;5069049;28;20036;-57
2023/02/28 02:51:30;;;;;;;13.02;5.72;;;;;;;;;;5070335;28;20410;-60
2023/02/28 02:54:04;;;;;;;12.43;6.22;;;;;;;;;;5072773;28;20025;-58
2023/02/28 02:56:33;;;;;;;11.32;5.72;;;;;;;;;;5066403;28;20024;-58
2023/02/28 02:59:09;;;;;;;10.35;6.25;;;;;;;;;;5052050;28;20121;-59
2023/02/28 03:01:36;;;;;;;12.95;5.95;;;;;;;;;;5069151;28;20021;-59
2023/02/28 03:04:07;;;;;;;11.52;6.03;;;;;;;;;;5067138;28;20017;-59
2023/02/28 03:06:32;;;;;;;12.07;5.75;;;;;;;;;;5084214;28;20025;-59
2023/02/28 03:08:59;;;;;;;10.82;5.25;;;;;;;;;;5067878;28;20021;-59
2023/02/28 03:11:25;;;;;;;12.35;6.07;;;;;;;;;;5068796;28;20024;-59
2023/02/28 03:14:13;;;;;;;8.90;5.20;;;;;;;;;;5069338;28;20450;-58
2023/02/28 03:16:58;;;;;;;8.75;4.93;;;;;;;;;;5066883;28;20039;-59
2023/02/28 03:19:45;;;;;;;10.88;5.47;;;;;;;;;;5070105;28;20099;-58
2023/02/28 03:22:19;;;;;;;10.98;4.95;;;;;;;;;;5072025;28;20028;-58
2023/02/28 03:24:45;;;;;;;10.50;5.80;;;;;;;;;;5069016;28;20500;-58
2023/02/28 03:27:19;;;;;;;12.85;6.38;;;;;;;;;;5069631;28;20032;-58
2023/02/28 03:29:51;;;;;;;10.05;6.20;;;;;;;;;;5052940;28;20028;-58
2023/02/28 03:32:24;;;;;;;9.00;5.90;;;;;;;;;;5068334;28;20098;-58
2023/02/28 03:34:58;;;;;;;10.55;5.63;;;;;;;;;;5069129;28;20373;-57
2023/02/28 03:37:26;;;;;;;11.23;5.85;;;;;;;;;;5068965;28;20481;-59
2023/02/28 03:40:08;;;;;;;10.35;5.72;;;;;;;;;;5068590;28;20370;-58
2023/02/28 03:42:36;;;;;;;10.07;6.22;;;;;;;;;;5068521;28;20017;-59
2023/02/28 03:45:25;;;;;;;12.35;6.30;;;;;;;;;;5067176;28;20025;-59
2023/02/28 03:47:56;;;;;;;13.75;6.43;;;;;;;;;;5062605;28;20040;-59
2023/02/28 03:50:27;;;;;;;11.63;6.72;;;;;;;;;;5066563;28;20040;-58
2023/02/28 03:53:04;;;;;;;13.57;6.25;;;;;;;;;;5069778;28;20111;-58
2023/02/28 03:55:34;;;;;;;11.95;6.35;;;;;;;;;;5063951;28;20028;-58
2023/02/28 03:58:15;;;;;;;;;;;;;;;;;;5049716;28;21438;-58
2023/02/28 04:00:46;;;;;;;9.38;5.55;;;;;;;;;;5064654;28;19923;-58
2023/02/28 04:03:12;;;;;;;13.18;6.40;;;;;;;;;;5036068;28;20065;-59
2023/02/28 04:05:55;;;;;;;10.13;6.05;;;;;;;;;;5068390;28;20020;-59
2023/02/28 04:08:22;;;;;;;12.75;6.50;;;;;;;;;;5065542;28;20031;-58
2023/02/28 04:10:58;;;;;;;11.02;6.05;;;;;;;;;;5070114;28;20113;-58
2023/02/28 04:13:23;;;;;;;10.35;6.15;;;;;;;;;;5067384;28;20036;-58
2023/02/28 04:15:49;;;;;;;11.77;6.68;;;;;;;;;;5067226;28;20029;-58
2023/02/28 04:18:14;;;;;;;11.55;6.90;;;;;;;;;;5066063;28;20592;-60
2023/02/28 04:20:39;;;;;;;11.45;6.60;;;;;;;;;;5065995;28;20053;-59
2023/02/28 04:23:05;;;;;;;13.35;7.13;;;;;;;;;;5069003;28;20044;-58
2023/02/28 04:25:30;;;;;;;13.07;7.15;;;;;;;;;;5066706;28;20039;-55
2023/02/28 04:27:55;;;;;;;15.05;7.82;;;;;;;;;;5051406;28;20105;-59
2023/02/28 04:30:21;;;;;;;28.20;9.63;;;;;;;;;;5068054;28;20355;-60
2023/02/28 04:32:46;;;;;;;24.90;10.45;;;;;;;;;;5069192;28;20056;-57
2023/02/28 04:35:11;;;;;;;20.55;8.65;;;;;;;;;;5066945;28;20098;-60
2023/02/28 04:37:37;;;;;;;15.82;7.32;;;;;;;;;;5066714;28;20254;-59
2023/02/28 04:40:03;;;;;;;13.27;6.78;;;;;;;;;;5067224;28;20024;-56
2023/02/28 04:42:35;;;;;;;12.52;7.00;;;;;;;;;;5069161;28;20031;-58
2023/02/28 04:45:04;;;;;;;13.73;7.50;;;;;;;;;;5052174;28;20231;-59
2023/02/28 04:47:30;;;;;;;42.30;12.07;;;;;;;;;;5066278;28;20074;-58
2023/02/28 04:49:55;;;;;;;34.72;11.18;;;;;;;;;;5067370;28;20029;-58
2023/02/28 04:52:21;;;;;;;23.08;9.13;;;;;;;;;;5068857;28;20347;-58
2023/02/28 04:54:46;;;;;;;28.38;10.50;;;;;;;;;;5069076;28;20116;-59
2023/02/28 04:57:12;;;;;;;56.58;14.90;;;;;;;;;;5067442;28;20033;-58
2023/02/28 04:59:38;;;;;;;34.25;12.98;;;;;;;;;;5064590;28;20485;-58
2023/02/28 05:02:06;;;;;;;18.30;8.75;;;;;;;;;;5064700;28;20047;-59
2023/02/28 05:04:33;;;;;;;19.45;8.43;;;;;;;;;;5067337;28;20017;-58
2023/02/28 05:07:00;;;;;;;20.38;8.40;;;;;;;;;;5065343;28;20249;-59
2023/02/28 05:09:25;;;;;;;16.67;8.35;;;;;;;;;;5050678;28;20036;-58
2023/02/28 05:11:51;;;;;;;15.30;7.90;;;;;;;;;;5047732;28;20029;-58
2023/02/28 05:14:16;;;;;;;19.95;8.52;;;;;;;;;;5068160;28;20070;-58
2023/02/28 05:16:42;;;;;;;16.42;7.95;;;;;;;;;;5065026;28;20024;-58
2023/02/28 05:19:07;;;;;;;19.35;8.18;;;;;;;;;;5066365;28;20024;-58
2023/02/28 05:21:38;;;;;;;20.13;8.95;;;;;;;;;;5071409;28;20063;-58
2023/02/28 05:24:13;;;;;;;15.48;8.73;;;;;;;;;;5067911;28;20038;-59
2023/02/28 05:26:41;;;;;;;17.05;8.35;;;;;;;;;;5071795;28;20468;-58
2023/02/28 05:29:07;;;;;;;21.20;9.30;;;;;;;;;;5073988;28;20043;-58
2023/02/28 05:31:33;;;;;;;20.55;8.68;;;;;;;;;;5054107;28;20024;-58
2023/02/28 05:33:58;;;;;;;16.85;8.63;;;;;;;;;;5072068;28;20483;-58
2023/02/28 05:36:24;;;;;;;20.20;9.13;;;;;;;;;;5071160;28;20357;-58
2023/02/28 05:38:50;;;;;;;21.90;10.10;;;;;;;;;;5070037;28;20030;-58
2023/02/28 05:41:17;;;;;;;17.13;9.38;;;;;;;;;;5072672;28;20028;-58
2023/02/28 05:43:45;;;;;;;18.27;9.15;;;;;;;;;;5071383;28;20027;-58
2023/02/28 05:46:12;;;;;;;16.67;9.20;;;;;;;;;;5036586;28;20031;-57
2023/02/28 05:48:39;;;;;;;16.88;8.70;;;;;;;;;;5071313;28;20074;-58
2023/02/28 05:51:05;;;;;;;16.25;8.65;;;;;;;;;;5072606;28;20036;-59
2023/02/28 05:53:31;;;;;;;19.58;9.23;;;;;;;;;;5055010;28;20024;-60
2023/02/28 05:55:57;;;;;;;23.10;8.70;;;;;;;;;;5070458;28;20119;-59
2023/02/28 05:58:23;;;;;;;20.17;9.07;;;;;;;;;;5071539;28;20125;-58
2023/02/28 06:00:48;;;;;;;21.75;8.57;;;;;;;;;;5071009;28;20035;-58
2023/02/28 06:03:14;;;;;;;19.17;9.25;;;;;;;;;;5071014;28;20024;-56
2023/02/28 06:05:40;;;;;;;17.58;9.13;;;;;;;;;;5071841;28;20020;-56
2023/02/28 06:08:08;;;;;;;19.00;9.52;;;;;;;;;;5070854;28;20023;-57
2023/02/28 06:10:35;;;;;;;19.35;9.55;;;;;;;;;;5070718;28;20026;-59
2023/02/28 06:13:02;;;;;;;19.95;9.88;;;;;;;;;;5070692;28;20466;-59
2023/02/28 06:15:28;;;;;;;21.20;9.88;;;;;;;;;;5065408;28;20420;-56
2023/02/28 06:17:55;;;;;;;30.83;9.98;;;;;;;;;;5070186;28;20024;-58
2023/02/28 06:20:21;;;;;;;34.35;10.52;;;;;;;;;;5071761;28;20081;-57
2023/02/28 06:22:46;;;;;;;21.88;10.45;;;;;;;;;;5034670;28;20013;-57
2023/02/28 06:25:12;;;;;;;23.35;11.00;;;;;;;;;;5061464;28;20024;-58
2023/02/28 06:27:37;;;;;;;22.52;9.93;;;;;;;;;;5066208;28;20043;-58
2023/02/28 06:30:03;;;;;;;23.48;11.40;;;;;;;;;;5049986;28;20036;-61
2023/02/28 06:32:28;;;;;;;25.83;11.30;;;;;;;;;;5069975;28;20020;-58
2023/02/28 06:34:54;;;;;;;22.55;10.10;;;;;;;;;;5069063;28;20047;-58
2023/02/28 06:37:21;;;;;;;27.42;12.02;;;;;;;;;;5068434;28;20048;-58
2023/02/28 06:39:46;;;;;;;29.95;11.10;;;;;;;;;;5071540;28;20036;-58
2023/02/28 06:42:12;;;;;;;24.63;11.48;;;;;;;;;;5070131;28;20077;-57
2023/02/28 06:44:38;;;;;;;23.63;11.15;;;;;;;;;;5071284;28;20032;-57
2023/02/28 06:47:05;;;;;;;26.23;11.45;;;;;;;;;;5069751;28;20321;-57
2023/02/28 06:49:33;;;;;;;26.23;11.93;;;;;;;;;;5063282;28;20116;-58
2023/02/28 06:51:58;;;;;;;27.23;13.25;;;;;;;;;;5071252;28;20025;-57
2023/02/28 06:54:24;;;;;;;24.10;11.50;;;;;;;;;;5068542;28;20535;-57
2023/02/28 06:56:49;;;;;;;28.92;12.45;;;;;;;;;;5069861;28;20024;-59
2023/02/28 06:59:16;;;;;;;27.42;12.07;;;;;;;;;;5069866;28;20039;-59
2023/02/28 07:01:41;;;;;;;29.08;13.13;;;;;;;;;;5070841;28;20021;-59
2023/02/28 07:04:06;;;;;;;30.83;12.68;;;;;;;;;;5069764;28;20370;-59
2023/02/28 07:06:32;;;;;;;30.90;12.02;;;;;;;;;;5069099;28;20020;-59
2023/02/28 07:08:58;;;;;;;30.00;12.30;;;;;;;;;;5071738;28;20390;-57
2023/02/28 07:11:26;;;;;;;28.83;12.23;;;;;;;;;;5070014;28;20024;-58
2023/02/28 07:13:53;;;;;;;26.67;11.50;;;;;;;;;;5069275;28;20105;-59
2023/02/28 07:16:19;;;;;;;30.15;12.55;;;;;;;;;;5070365;28;20131;-57
2023/02/28 07:18:45;;;;;;;34.05;12.95;;;;;;;;;;5067538;28;20341;-57
2023/02/28 07:21:10;;;;;;;36.10;12.80;;;;;;;;;;5068736;28;20093;-59
2023/02/28 07:23:41;;;;;;;32.00;11.43;;;;;;;;;;5070436;28;20017;-59
2023/02/28 07:26:11;;;;;;;25.00;11.18;;;;;;;;;;5070579;28;20039;-59
2023/02/28 07:28:36;;;;;;;;;;;;;;;;;;5068513;28;20477;-59
2023/02/28 07:31:06;;;;;;;29.00;12.38;;;;;;;;;;5061603;28;19959;-58
2023/02/28 07:33:31;;;;;;;29.83;12.30;;;;;;;;;;5068939;28;20024;-58
2023/02/28 07:36:05;;;;;;;30.27;12.27;;;;;;;;;;5068437;28;20073;-59
2023/02/28 07:38:33;;;;;;;24.70;11.07;;;;;;;;;;5068185;28;20077;-58
2023/02/28 07:40:58;;;;;;;27.02;11.52;;;;;;;;;;5069093;28;20043;-58
2023/02/28 07:43:23;;;;;;;25.92;11.55;;;;;;;;;;5068702;28;20035;-59
2023/02/28 07:45:49;;;;;;;29.88;12.00;;;;;;;;;;5052742;28;20468;-59
2023/02/28 07:48:14;;;;;;;28.77;12.00;;;;;;;;;;5050695;28;20033;-58
2023/02/28 07:50:40;;;;;;;27.63;12.68;;;;;;;;;;5069744;28;20021;-58
2023/02/28 07:53:05;;;;;;;27.77;12.25;;;;;;;;;;5069918;28;20462;-57
2023/02/28 07:55:30;;;;;;;27.90;12.00;;;;;;;;;;5069891;28;20017;-58
2023/02/28 07:57:57;;;;;;;29.55;12.63;;;;;;;;;;5066581;28;20036;-58
2023/02/28 08:00:23;;;;;;;22.40;11.20;;;;;;;;;;5069310;28;20031;-59
2023/02/28 08:02:49;;;;;;;28.70;12.35;;;;;;;;;;5068591;28;20028;-57
2023/02/28 08:05:14;;;;;;;26.63;12.35;;;;;;;;;;5052297;28;20020;-59
2023/02/28 08:07:40;;;;;;;26.92;12.60;;;;;;;;;;5068251;28;20017;-58
2023/02/28 08:10:06;;;;;;;28.70;12.35;;;;;;;;;;5068602;28;20025;-58
2023/02/28 08:12:31;;;;;;;29.67;13.35;;;;;;;;;;5068102;28;20016;-58
2023/02/28 08:14:57;;;;;;;35.03;12.60;;;;;;;;;;5069519;28;20036;-58
2023/02/28 08:17:22;;;;;;;30.25;13.30;;;;;;;;;;5068368;28;20111;-58
2023/02/28 08:19:48;;;;;;;26.95;11.77;;;;;;;;;;5066597;28;20020;-58
2023/02/28 08:22:13;;;;;;;28.13;12.07;;;;;;;;;;5067899;28;20102;-59
2023/02/28 08:24:41;;;;;;;29.02;11.70;;;;;;;;;;5069399;28;20027;-58
2023/02/28 08:27:07;;;;;;;30.92;12.10;;;;;;;;;;5066955;28;20049;-59
2023/02/28 08:29:32;;;;;;;30.27;12.38;;;;;;;;;;5049599;28;20017;-58
2023/02/28 08:31:58;;;;;;;30.58;11.95;;;;;;;;;;5067576;28;20092;-59
2023/02/28 08:34:24;;;;;;;30.60;13.52;;;;;;;;;;5068882;28;20017;-58
2023/02/28 08:36:49;;;;;;;32.83;13.48;;;;;;;;;;5067412;28;20020;-57
2023/02/28 08:39:15;;;;;;;26.52;12.77;;;;;;;;;;5068408;28;20462;-57
2023/02/28 08:41:42;;;;;;;26.85;11.40;;;;;;;;;;5068955;28;20028;-58
2023/02/28 08:44:08;;;;;;;25.73;11.63;;;;;;;;;;5067661;28;20029;-58
2023/02/28 08:46:33;;;;;;;31.20;12.48;;;;;;;;;;5044999;28;20024;-58
2023/02/28 08:49:01;;;;;;;24.33;11.85;;;;;;;;;;5062072;28;20066;-59
2023/02/28 08:51:27;;;;;;;24.23;12.07;;;;;;;;;;5068834;28;20044;-59
2023/02/28 08:53:54;;;;;;;26.42;11.90;;;;;;;;;;5067715;28;20115;-59
2023/02/28 08:56:21;;;;;;;41.90;16.50;;;;;;;;;;5069182;28;20048;-57
2023/02/28 08:58:48;;;;;;;30.08;13.93;;;;;;;;;;5067267;28;20036;-56
2023/02/28 09:01:15;;;;;;;30.35;12.27;;;;;;;;;;5067760;28;20024;-58
2023/02/28 09:03:41;;;;;;;39.42;16.40;;;;;;;;;;5068947;28;20266;-59
2023/02/28 09:06:08;;;;;;;36.10;14.52;;;;;;;;;;5067530;28;20032;-58
2023/02/28 09:08:34;;;;;;;28.45;12.40;;;;;;;;;;5067141;28;20024;-57
2023/02/28 09:10:59;;;;;;;28.13;12.32;;;;;;;;;;5083907;28;20044;-57
2023/02/28 09:13:26;;;;;;;48.72;16.13;;;;;;;;;;5068823;28;20040;-58
2023/02/28 09:15:53;;;;;;;45.67;16.95;;;;;;;;;;5068772;28;20469;-58
2023/02/28 09:18:18;;;;;;;26.88;13.18;;;;;;;;;;5066341;28;20123;-58
2023/02/28 09:20:44;;;;;;;26.55;11.85;;;;;;;;;;5067534;28;20116;-58
2023/02/28 09:23:11;;;;;;;28.42;13.43;;;;;;;;;;5067271;28;20032;-59
2023/02/28 09:25:38;;;;;;;31.38;14.05;;;;;;;;;;5068684;28;20023;-58
2023/02/28 09:28:03;;;;;;;30.33;14.48;;;;;;;;;;5066628;28;20471;-58
2023/02/28 09:30:30;;;;;;;31.88;14.38;;;;;;;;;;5065967;28;20147;-58
2023/02/28 09:32:55;;;;;;;29.13;12.82;;;;;;;;;;5068534;28;20543;-58
2023/02/28 09:35:22;;;;;;;35.58;14.80;;;;;;;;;;5065888;28;20017;-58
2023/02/28 09:37:50;;;;;;;40.13;18.08;;;;;;;;;;5068045;28;20032;-59
2023/02/28 09:40:17;;;;;;;33.88;16.20;;;;;;;;;;5066838;28;20037;-59
2023/02/28 09:42:46;;;;;;;30.52;16.13;;;;;;;;;;5065971;28;20115;-58
2023/02/28 09:45:21;;;;;;;30.77;13.93;;;;;;;;;;5067869;28;20027;-59
2023/02/28 09:47:49;;;;;;;29.00;14.65;;;;;;;;;;5063587;28;20275;-59
2023/02/28 09:50:29;;;;;;;24.88;13.52;;;;;;;;;;5067223;28;20431;-57
2023/02/28 09:52:55;;;;;;;29.02;13.45;;;;;;;;;;5068415;28;20025;-59
2023/02/28 09:55:31;;;;;;;27.17;13.48;;;;;;;;;;5068362;28;20031;-57
2023/02/28 09:57:59;;;;;;;24.85;12.10;;;;;;;;;;5066690;28;20025;-58
2023/02/28 10:00:33;;;;;;;28.70;13.70;;;;;;;;;;5062668;28;20105;-58
2023/02/28 10:03:04;;;;;;;29.65;15.75;;;;;;;;;;5063481;28;20112;-58
2023/02/28 10:05:37;;;;;;;29.67;13.15;;;;;;;;;;5066946;28;20021;-59
2023/02/28 10:08:25;;;;;;;37.53;17.23;;;;;;;;;;5066392;28;20482;-58
2023/02/28 10:10:55;;;;;;;30.75;15.07;;;;;;;;;;5047231;28;20467;-56
2023/02/28 10:13:33;;;;;;;26.10;12.98;;;;;;;;;;5069487;28;20020;-58
2023/02/28 10:16:05;;;;;;;25.20;12.70;;;;;;;;;;5071103;28;20035;-59
2023/02/28 10:18:41;;;;;;;23.30;12.43;;;;;;;;;;5069289;28;20036;-58
2023/02/28 10:21:30;;;;;;;27.70;13.05;;;;;;;;;;5071672;28;20466;-58
2023/02/28 10:24:16;;;;;;;29.23;13.07;;;;;;;;;;5065227;28;20036;-59
2023/02/28 10:26:43;;;;;;;26.10;13.30;;;;;;;;;;5070769;28;20028;-58
2023/02/28 10:29:10;;;;;;;24.38;13.13;;;;;;;;;;5070676;28;20172;-58
2023/02/28 10:31:35;;;;;;;24.65;13.43;;;;;;;;;;5086504;28;20381;-58
2023/02/28 10:34:01;;;;;;;33.40;14.73;;;;;;;;;;5071331;28;20024;-59
2023/02/28 10:36:28;;;;;;;22.75;12.73;;;;;;;;;;5070713;28;20016;-56
2023/02/28 10:38:54;;;;;;;27.48;12.50;;;;;;;;;;5069649;28;20020;-58
2023/02/28 10:41:26;;;;;;;23.00;12.25;;;;;;;;;;5070088;28;20477;-58
2023/02/28 10:43:51;;;;;;;22.33;11.70;;;;;;;;;;5071121;28;20709;-58
2023/02/28 10:46:25;;;;;;;23.30;12.57;;;;;;;;;;5053440;28;20225;-59
2023/02/28 10:49:03;;;;;;;22.08;11.70;;;;;;;;;;5069065;28;20043;-57
2023/02/28 10:51:36;;;;;;;21.27;12.35;;;;;;;;;;5066517;28;20094;-58
2023/02/28 10:54:02;;;;;;;22.15;12.45;;;;;;;;;;5069106;28;20070;-58
2023/02/28 10:56:28;;;;;;;25.30;12.48;;;;;;;;;;5098446;28;20029;-58
2023/02/28 10:59:00;;;;;;;30.02;14.52;;;;;;;;;;5067993;28;20024;-59
2023/02/28 11:01:41;;;;;;;26.50;12.93;;;;;;;;;;5066973;28;20020;-58
2023/02/28 11:04:29;;;;;;;22.88;13.05;;;;;;;;;;5053425;28;20516;-59
2023/02/28 11:07:16;;;;;;;24.20;12.07;;;;;;;;;;5053097;28;20040;-59
2023/02/28 11:09:44;;;;;;;25.95;12.93;;;;;;;;;;5068900;28;20029;-59
2023/02/28 11:12:21;;;;;;;25.98;12.20;;;;;;;;;;5053534;28;20162;-58
2023/02/28 11:14:50;;;;;;;24.48;12.88;;;;;;;;;;5067736;28;20017;-59
2023/02/28 11:17:26;;;;;;;24.17;12.52;;;;;;;;;;5069127;28;20055;-57
2023/02/28 11:19:55;;;;;;;20.60;12.10;;;;;;;;;;5063660;28;20086;-59
2023/02/28 11:22:28;;;;;;;23.17;12.95;;;;;;;;;;5068893;28;20016;-56
2023/02/28 11:24:56;;;;;;;22.23;13.05;;;;;;;;;;5065677;28;20498;-58
2023/02/28 11:27:25;;;;;;;25.02;13.10;;;;;;;;;;5068241;28;20036;-59
2023/02/28 11:29:50;;;;;;;24.40;12.30;;;;;;;;;;5068704;28;20373;-57
2023/02/28 11:32:21;;;;;;;27.83;14.40;;;;;;;;;;5067881;28;20035;-57
2023/02/28 11:35:00;;;;;;;28.15;13.70;;;;;;;;;;5070564;28;20029;-58
2023/02/28 11:37:27;;;;;;;;;;;;;;;;;;5070258;28;20097;-59
2023/02/28 11:39:52;;;;;;;28.42;13.73;;;;;;;;;;5069753;28;19915;-59
2023/02/28 11:43:06;;;;;;;29.10;15.65;;;;;;;;;;5069116;28;20024;-58
2023/02/28 11:46:01;;;;;;;30.15;17.60;;;;;;;;;;5029283;28;20013;-58
2023/02/28 11:48:38;;;;;;;23.90;14.40;;;;;;;;;;5050787;28;20103;-58
2023/02/28 11:51:12;;;;;;;26.70;15.07;;;;;;;;;;5070096;28;20473;-60
2023/02/28 11:54:21;;;;;;;23.42;13.75;;;;;;;;;;5070023;28;20119;-61
2023/02/28 11:56:50;;;;;;;23.48;13.35;;;;;;;;;;5063376;28;20101;-61
2023/02/28 11:59:33;;;;;;;22.07;13.37;;;;;;;;;;5067028;28;20020;-61
2023/02/28 12:02:16;;;;;;;23.55;13.13;;;;;;;;;;5068140;28;20281;-59
2023/02/28 12:05:10;;;;;;;23.75;13.63;;;;;;;;;;5063216;28;20107;-60
2023/02/28 12:08:11;;;;;;;24.35;13.68;;;;;;;;;;5068230;28;20024;-61
2023/02/28 12:10:48;;;;;;;22.00;12.65;;;;;;;;;;5006659;28;20601;-61
2023/02/28 12:13:27;;;;;;;22.35;14.45;;;;;;;;;;5059453;28;20110;-60
2023/02/28 12:16:27;;;;;;;22.97;13.73;;;;;;;;;;5067889;28;20041;-60
2023/02/28 12:19:19;;;;;;;20.70;12.95;;;;;;;;;;5061430;28;20058;-61
2023/02/28 12:22:13;;;;;;;22.70;14.32;;;;;;;;;;5066803;28;20036;-61
2023/02/28 12:25:05;;;;;;;22.58;13.02;;;;;;;;;;5064940;28;20386;-60
2023/02/28 12:27:36;;;;;;;19.98;12.93;;;;;;;;;;5065501;28;20032;-59
2023/02/28 12:30:25;;;;;;;20.50;13.25;;;;;;;;;;5050778;28;20032;-60
2023/02/28 12:33:12;;;;;;;22.70;13.02;;;;;;;;;;5067646;28;20103;-61
2023/02/28 12:35:55;;;;;;;22.20;13.40;;;;;;;;;;5066556;28;20039;-59
2023/02/28 12:38:58;;;;;;;22.17;13.98;;;;;;;;;;5064835;28;20060;-60
2023/02/28 12:41:46;;;;;;;22.80;14.18;;;;;;;;;;5054126;28;20033;-61
2023/02/28 12:44:25;;;;;;;30.10;19.15;;;;;;;;;;5065096;28;20362;-60
2023/02/28 12:46:53;;;;;;;;;;;;;;;;;;5050211;28;20024;-60
2023/02/28 12:49:39;;;;;;;21.52;13.32;;;;;;;;;;5066604;28;19917;-60
2023/02/28 12:52:06;;;;;;;24.52;13.60;;;;;;;;;;5065772;28;20055;-60
2023/02/28 12:54:50;;;;;;;24.90;13.07;;;;;;;;;;5066962;28;20123;-61
2023/02/28 12:57:31;;;;;;;22.67;12.40;;;;;;;;;;5049563;28;20020;-61
2023/02/28 13:00:02;;;;;;;20.58;12.40;;;;;;;;;;5066378;28;20485;-61
2023/02/28 13:02:39;;;;;;;18.00;11.75;;;;;;;;;;5063742;28;20138;-60
2023/02/28 13:05:26;;;;;;;19.67;12.10;;;;;;;;;;5067512;28;20046;-60
2023/02/28 13:08:00;;;;;;;19.55;12.15;;;;;;;;;;5067046;28;20335;-61
2023/02/28 13:10:49;;;;;;;24.05;14.75;;;;;;;;;;5065427;28;20028;-61
2023/02/28 13:13:36;;;;;;;17.70;11.55;;;;;;;;;;5066187;28;20032;-61
2023/02/28 13:16:03;;;;;;;20.05;13.32;;;;;;;;;;5067003;28;20031;-60
2023/02/28 13:18:42;;;;;;;19.63;12.30;;;;;;;;;;5064773;28;20038;-59
2023/02/28 13:21:09;;;;;;;18.90;12.17;;;;;;;;;;5068236;28;20052;-60
2023/02/28 13:23:40;;;;;;;22.38;13.63;;;;;;;;;;5067676;28;20606;-61
2023/02/28 13:26:05;;;;;;;21.83;12.93;;;;;;;;;;5066820;28;20032;-61
2023/02/28 13:29:16;;;;;;;21.23;12.75;;;;;;;;;;5089901;28;20390;-61
2023/02/28 13:32:19;;;;;;;17.80;11.52;;;;;;;;;;5035313;28;20375;-59
2023/02/28 13:34:50;;;;;;;15.82;9.75;;;;;;;;;;5004883;28;20075;-61
2023/02/28 13:37:22;;;;;;;14.00;8.65;;;;;;;;;;5052230;28;20039;-59
2023/02/28 13:39:55;;;;;;;15.23;8.82;;;;;;;;;;5064225;28;20242;-60
2023/02/28 13:42:37;;;;;;;16.70;11.70;;;;;;;;;;5066137;28;20025;-60
2023/02/28 13:45:05;;;;;;;19.95;11.23;;;;;;;;;;5063394;28;20028;-59
2023/02/28 13:47:46;;;;;;;16.02;9.80;;;;;;;;;;5067525;28;20029;-56
2023/02/28 13:50:20;;;;;;;16.65;10.77;;;;;;;;;;5070401;28;20093;-59
2023/02/28 13:52:52;;;;;;;13.77;8.98;;;;;;;;;;5070943;28;20071;-61
2023/02/28 13:55:35;;;;;;;20.60;10.75;;;;;;;;;;5070603;28;20370;-60
2023/02/28 13:58:22;;;;;;;14.45;10.07;;;;;;;;;;5067009;28;20036;-61
2023/02/28 14:01:32;;;;;;;15.73;9.43;;;;;;;;;;5069399;28;20035;-61
2023/02/28 14:04:19;;;;;;;23.98;12.18;;;;;;;;;;5023133;28;20045;-58
2023/02/28 14:06:50;;;;;;;17.55;11.60;;;;;;;;;;5066384;28;20414;-58
2023/02/28 14:09:36;;;;;;;17.20;9.85;;;;;;;;;;5069400;28;20024;-58
2023/02/28 14:12:39;;;;;;;23.70;13.48;;;;;;;;;;5070829;28;20492;-60
2023/02/28 14:15:40;;;;;;;27.23;14.45;;;;;;;;;;5070413;28;20032;-59
2023/02/28 14:18:13;;;;;;;27.15;13.63;;;;;;;;;;5064993;28;20032;-60
2023/02/28 14:20:40;;;;;;;30.17;14.15;;;;;;;;;;5067325;28;20127;-59
2023/02/28 14:23:32;;;;;;;27.55;15.73;;;;;;;;;;5068813;28;20048;-60
2023/02/28 14:26:07;;;;;;;23.75;14.60;;;;;;;;;;5061016;28;20032;-59
2023/02/28 14:29:20;;;;;;;21.13;14.40;;;;;;;;;;5068034;28;20036;-60
2023/02/28 14:32:11;;;;;;;23.98;14.05;;;;;;;;;;5008818;28;20029;-58
2023/02/28 14:34:49;;;;;;;19.85;12.95;;;;;;;;;;5037416;28;20031;-58
2023/02/28 14:37:28;;;;;;;26.30;14.95;;;;;;;;;;5068185;28;20031;-57
2023/02/28 14:39:56;;;;;;;25.10;13.93;;;;;;;;;;5069756;28;20024;-60
2023/02/28 14:42:37;;;;;;;23.63;13.88;;;;;;;;;;5068933;28;20493;-60
2023/02/28 14:45:04;;;;;;;22.23;13.10;;;;;;;;;;5069382;28;20043;-58
2023/02/28 14:47:34;;;;;;;29.60;13.30;;;;;;;;;;5068588;28;20032;-60
2023/02/28 14:50:01;;;;;;;23.52;13.77;;;;;;;;;;5068725;28;20047;-60
2023/02/28 14:52:29;;;;;;;21.77;12.77;;;;;;;;;;5069797;28;20370;-60